Maulden, Kentucky
Current Conditions -  °F | °C
As of 11:53 PM on Sunday 21 Dec 2014 (Local Time) from KLOZ Reporting Station
Overcast Overcast  
Wind Chill: 42°   Ceiling: 4600
Heat Index: 42°   Visibility: 10mi
Dew Point: 29°   Wind: 0mph
Humidity: 60%   Direction: NA
Pressure: 30.08"   Gusts: NA
Location:  37.346°N, 83.8503°W
Report Text: KLOZ 220453Z AUTO 00000KT 10SM OVC046 06/M02 A3008 RMK AO2 SLP190 T00561017 401001056 $
Loading
Personal Weather Stations






























Interactive Weather Map New forecast layout! Learn more

10-Day Weather Forecast

Advertisements
Track Severe Weather on mobile